createdAt,value
2023-01-25T00:00:34.541Z,43.00
2023-01-25T00:03:02.394Z,44.03
2023-01-25T00:05:30.649Z,42.27
2023-01-25T00:07:58.494Z,44.70
2023-01-25T00:10:26.341Z,38.83
2023-01-25T00:12:54.220Z,39.57
2023-01-25T00:15:23.542Z,43.13
2023-01-25T00:17:51.643Z,39.87
2023-01-25T00:20:19.512Z,45.57
2023-01-25T00:22:47.364Z,36.27
2023-01-25T00:25:15.300Z,40.67
2023-01-25T00:27:43.119Z,38.33
2023-01-25T00:30:47.957Z,38.50
2023-01-25T00:33:59.095Z,38.80
2023-01-25T00:36:32.896Z,43.00
2023-01-25T00:39:00.731Z,37.47
2023-01-25T00:41:28.593Z,41.53
2023-01-25T00:43:56.711Z,37.63
2023-01-25T00:46:25.494Z,42.03
2023-01-25T00:48:56.031Z,42.40
2023-01-25T00:51:25.052Z,42.77
2023-01-25T00:53:53.490Z,35.97
2023-01-25T00:56:21.739Z,38.97
2023-01-25T00:58:49.732Z,42.13
2023-01-25T01:01:20.174Z,39.60
2023-01-25T01:03:48.076Z,39.03
2023-01-25T01:06:54.383Z,43.20
2023-01-25T01:09:42.713Z,42.83
2023-01-25T01:13:24.216Z,45.63
2023-01-25T01:17:05.747Z,41.60
2023-01-25T01:19:55.062Z,42.13
2023-01-25T01:22:23.018Z,39.30
2023-01-25T01:24:52.277Z,41.00
2023-01-25T01:27:20.175Z,47.83
2023-01-25T01:29:48.038Z,43.47
2023-01-25T01:32:16.136Z,35.10
2023-01-25T01:34:44.518Z,44.10
2023-01-25T01:37:12.881Z,43.63
2023-01-25T01:39:40.708Z,39.07
2023-01-25T01:42:10.159Z,41.83
2023-01-25T01:44:46.402Z,40.63
2023-01-25T01:47:18.864Z,42.00
2023-01-25T01:49:52.288Z,43.37
2023-01-25T01:52:24.756Z,45.37
2023-01-25T01:54:59.408Z,42.80
2023-01-25T01:57:35.803Z,41.93
2023-01-25T02:00:09.691Z,45.57
2023-01-25T02:02:45.188Z,41.83
2023-01-25T02:05:20.478Z,40.83
2023-01-25T02:07:51.922Z,41.33
2023-01-25T02:10:22.281Z,47.37
2023-01-25T02:12:53.837Z,43.40
2023-01-25T02:15:21.957Z,39.40
2023-01-25T02:17:51.103Z,43.10
2023-01-25T02:20:28.383Z,42.60
2023-01-25T02:23:02.520Z,40.53
2023-01-25T02:25:32.075Z,39.47
2023-01-25T02:28:08.337Z,33.27
2023-01-25T02:30:36.397Z,41.27
2023-01-25T02:33:04.351Z,40.70
2023-01-25T02:35:41.942Z,40.70
2023-01-25T02:38:12.998Z,40.00
2023-01-25T02:40:47.475Z,37.95
2023-01-25T02:43:17.229Z,39.80
2023-01-25T02:45:49.000Z,37.60
2023-01-25T02:48:17.002Z,39.93
2023-01-25T02:50:45.728Z,41.47
2023-01-25T02:53:13.712Z,36.93
2023-01-25T02:55:42.932Z,33.93
2023-01-25T02:58:10.876Z,39.77
2023-01-25T03:00:38.879Z,37.77
2023-01-25T03:03:06.827Z,38.00
2023-01-25T03:05:35.374Z,40.00
2023-01-25T03:08:03.417Z,37.00
2023-01-25T03:10:31.528Z,38.33
2023-01-25T03:13:00.808Z,38.10
2023-01-25T03:15:28.923Z,34.97
2023-01-25T03:17:57.685Z,41.27
2023-01-25T03:20:25.591Z,41.87
2023-01-25T03:22:53.567Z,39.27
2023-01-25T03:25:21.508Z,42.20
2023-01-25T03:27:59.822Z,36.00
2023-01-25T03:30:28.206Z,39.20
2023-01-25T03:32:56.221Z,39.73
2023-01-25T03:35:24.417Z,40.03
2023-01-25T03:37:52.851Z,38.60
2023-01-25T03:40:20.908Z,41.80
2023-01-25T03:42:52.252Z,35.43
2023-01-25T03:45:22.127Z,41.40
2023-01-25T03:47:50.991Z,38.07
2023-01-25T03:50:19.051Z,41.37
2023-01-25T03:52:49.355Z,40.03
2023-01-25T03:55:17.534Z,38.30
2023-01-25T03:57:49.072Z,34.77
2023-01-25T04:00:20.069Z,35.13
2023-01-25T04:02:57.909Z,34.97
2023-01-25T04:05:27.356Z,33.60
2023-01-25T04:07:55.725Z,32.33
2023-01-25T04:10:32.246Z,36.07
2023-01-25T04:13:00.208Z,34.37
2023-01-25T04:15:28.498Z,31.97
2023-01-25T04:18:02.639Z,33.50
2023-01-25T04:20:30.662Z,36.47
2023-01-25T04:22:59.812Z,30.87
2023-01-25T04:25:35.353Z,36.80
2023-01-25T04:28:03.497Z,33.90
2023-01-25T04:30:32.458Z,34.33
2023-01-25T04:33:08.066Z,32.10
2023-01-25T04:35:35.981Z,33.43
2023-01-25T04:38:06.709Z,37.13
2023-01-25T04:40:39.093Z,33.10
2023-01-25T04:43:07.690Z,33.77
2023-01-25T04:45:36.815Z,36.67
2023-01-25T04:48:13.102Z,31.33
2023-01-25T04:50:48.424Z,39.93
2023-01-25T04:53:17.124Z,33.90
2023-01-25T04:55:48.624Z,37.97
2023-01-25T04:58:17.417Z,35.43
2023-01-25T05:00:45.627Z,36.90
2023-01-25T05:03:14.886Z,33.57
2023-01-25T05:05:47.699Z,36.07
2023-01-25T05:08:19.236Z,37.23
2023-01-25T05:10:47.353Z,37.27
2023-01-25T05:13:26.505Z,32.83
2023-01-25T05:16:08.985Z,36.37
2023-01-25T05:18:48.060Z,36.67
2023-01-25T05:21:38.294Z,32.87
2023-01-25T05:24:07.002Z,33.97
2023-01-25T05:26:53.092Z,28.90
2023-01-25T05:29:21.756Z,32.13
2023-01-25T05:31:58.579Z,32.63
2023-01-25T05:34:29.058Z,33.63
2023-01-25T05:36:58.079Z,27.70
2023-01-25T05:39:26.687Z,30.93
2023-01-25T05:41:55.456Z,31.57
2023-01-25T05:44:24.414Z,29.50
2023-01-25T05:46:53.450Z,30.97
2023-01-25T05:49:21.600Z,32.63
2023-01-25T05:51:50.805Z,30.50
2023-01-25T05:54:20.661Z,29.30
2023-01-25T05:56:57.736Z,27.73
2023-01-25T05:59:26.484Z,34.50
2023-01-25T06:01:55.436Z,32.27
2023-01-25T06:04:23.611Z,28.47
2023-01-25T06:06:52.832Z,26.40
2023-01-25T06:09:20.931Z,28.60
2023-01-25T06:11:49.105Z,25.23
2023-01-25T06:14:17.301Z,26.57
2023-01-25T06:16:45.260Z,30.20
2023-01-25T06:19:24.923Z,26.83
2023-01-25T06:22:09.368Z,28.33
2023-01-25T06:24:37.178Z,30.20
2023-01-25T06:27:05.116Z,34.63
2023-01-25T06:29:32.903Z,30.97
2023-01-25T06:32:00.830Z,28.13
2023-01-25T06:34:29.082Z,27.10
2023-01-25T06:36:57.721Z,30.20
2023-01-25T06:39:26.953Z,28.40
2023-01-25T06:41:55.064Z,26.10
2023-01-25T06:44:22.919Z,28.40
2023-01-25T06:46:50.934Z,24.80
2023-01-25T06:49:18.825Z,28.40
2023-01-25T06:51:46.704Z,31.17
2023-01-25T06:54:14.632Z,28.27
2023-01-25T06:56:43.959Z,24.37
2023-01-25T06:59:11.907Z,29.67
2023-01-25T07:01:39.860Z,24.90
2023-01-25T07:04:08.986Z,25.60
2023-01-25T07:06:37.131Z,25.67
2023-01-25T07:09:06.188Z,24.10
2023-01-25T07:11:34.067Z,25.33
2023-01-25T07:14:03.434Z,25.90
2023-01-25T07:16:36.672Z,26.37
2023-01-25T07:19:04.840Z,25.90
2023-01-25T07:21:32.729Z,27.83
2023-01-25T07:24:02.894Z,28.67
2023-01-25T07:26:31.834Z,26.87
2023-01-25T07:29:00.597Z,26.47
2023-01-25T07:31:30.743Z,23.90
2023-01-25T07:33:59.561Z,29.10
2023-01-25T07:36:27.906Z,25.73
2023-01-25T07:38:57.169Z,30.37
2023-01-25T07:41:26.600Z,29.30
2023-01-25T07:43:54.801Z,31.10
2023-01-25T07:46:38.961Z,26.03
2023-01-25T07:49:06.767Z,30.27
2023-01-25T07:51:34.697Z,24.83
2023-01-25T07:54:05.175Z,28.60
2023-01-25T07:56:35.081Z,27.67
2023-01-25T07:59:03.635Z,27.53
2023-01-25T08:01:34.443Z,30.43
2023-01-25T08:04:05.731Z,27.73
2023-01-25T08:06:39.160Z,25.87
2023-01-25T08:09:09.938Z,27.57
2023-01-25T08:11:37.774Z,27.30
2023-01-25T08:14:05.668Z,30.63
2023-01-25T08:16:34.261Z,30.50
2023-01-25T08:19:04.659Z,27.60
2023-01-25T08:21:34.500Z,24.90
2023-01-25T08:24:05.066Z,29.37
2023-01-25T08:26:33.231Z,32.57
2023-01-25T08:29:01.135Z,28.03
2023-01-25T08:31:30.728Z,28.90
2023-01-25T08:33:59.630Z,25.83
2023-01-25T08:36:29.206Z,27.93
2023-01-25T08:38:59.235Z,27.07
2023-01-25T08:41:28.550Z,24.07
2023-01-25T08:43:57.522Z,26.43
2023-01-25T08:46:30.282Z,26.37
2023-01-25T08:49:01.094Z,27.80
2023-01-25T08:51:31.709Z,28.40
2023-01-25T08:54:03.323Z,30.53
2023-01-25T08:56:31.235Z,23.93
2023-01-25T08:58:59.077Z,24.77
2023-01-25T09:01:26.934Z,22.70
2023-01-25T09:03:55.990Z,29.93
2023-01-25T09:06:23.896Z,26.17
2023-01-25T09:08:53.105Z,26.40
2023-01-25T09:11:23.396Z,26.67
2023-01-25T09:13:51.659Z,23.23
2023-01-25T09:16:28.013Z,23.53
2023-01-25T09:18:57.246Z,25.97
2023-01-25T09:21:25.424Z,30.37
2023-01-25T09:24:10.704Z,22.40
2023-01-25T09:26:42.790Z,25.93
2023-01-25T09:29:29.397Z,24.33
2023-01-25T09:31:57.870Z,27.60
2023-01-25T09:34:41.291Z,23.50
2023-01-25T09:37:09.156Z,26.40
2023-01-25T09:39:38.356Z,23.30
2023-01-25T09:42:48.107Z,25.80
2023-01-25T09:45:25.207Z,24.40
2023-01-25T09:47:59.191Z,30.50
2023-01-25T09:50:34.613Z,23.33
2023-01-25T09:53:30.966Z,27.87
2023-01-25T09:56:04.537Z,25.23
2023-01-25T09:58:36.416Z,25.87
2023-01-25T10:01:19.507Z,25.47
2023-01-25T10:03:56.053Z,24.53
2023-01-25T10:06:30.416Z,24.57
2023-01-25T10:09:08.383Z,22.87
2023-01-25T10:11:39.851Z,25.73
2023-01-25T10:14:15.271Z,27.03
2023-01-25T10:16:57.007Z,25.37
2023-01-25T10:19:35.627Z,25.27
2023-01-25T10:22:11.868Z,25.60
2023-01-25T10:25:03.115Z,24.43
2023-01-25T10:27:41.476Z,21.57
2023-01-25T10:30:24.494Z,29.50
2023-01-25T10:32:56.217Z,26.17
2023-01-25T10:35:35.551Z,24.03
2023-01-25T10:38:08.427Z,29.13
2023-01-25T10:40:43.272Z,26.53
2023-01-25T10:43:18.514Z,21.30
2023-01-25T10:45:48.138Z,26.17
2023-01-25T10:48:20.386Z,23.43
2023-01-25T10:50:51.493Z,27.17
2023-01-25T10:53:34.155Z,22.47
2023-01-25T10:56:22.961Z,28.33
2023-01-25T10:58:55.328Z,21.93
2023-01-25T11:01:29.403Z,26.00
2023-01-25T11:03:57.565Z,27.77
2023-01-25T11:06:35.234Z,26.20
2023-01-25T11:09:23.860Z,26.27
2023-01-25T11:11:56.329Z,23.30
2023-01-25T11:14:27.612Z,25.60
2023-01-25T11:16:57.392Z,23.17
2023-01-25T11:19:28.944Z,22.63
2023-01-25T11:21:58.867Z,26.13
2023-01-25T11:24:29.095Z,30.93
2023-01-25T11:27:20.485Z,27.30
2023-01-25T11:30:09.768Z,24.17
2023-01-25T11:32:39.989Z,23.70
2023-01-25T11:35:14.133Z,24.83
2023-01-25T11:37:59.511Z,23.10
2023-01-25T11:40:35.082Z,22.00
2023-01-25T11:43:15.653Z,22.90
2023-01-25T11:46:07.670Z,22.27
2023-01-25T11:48:53.681Z,24.50
2023-01-25T11:51:26.300Z,23.20
2023-01-25T11:54:26.540Z,21.80
2023-01-25T11:57:00.135Z,22.97
2023-01-25T11:59:50.148Z,23.90
2023-01-25T12:02:39.239Z,23.90
2023-01-25T12:05:29.699Z,24.20
2023-01-25T12:08:10.179Z,26.77
2023-01-25T12:10:48.020Z,29.20
2023-01-25T12:13:25.377Z,27.03
2023-01-25T12:16:03.549Z,27.63
2023-01-25T12:18:52.607Z,26.07
2023-01-25T12:21:33.176Z,27.33
2023-01-25T12:24:20.867Z,28.10
2023-01-25T12:26:58.471Z,26.17
2023-01-25T12:29:33.595Z,29.20
2023-01-25T12:32:07.043Z,22.30
2023-01-25T12:34:38.780Z,27.87
2023-01-25T12:37:16.248Z,25.53
2023-01-25T12:39:50.048Z,29.50
2023-01-25T12:42:22.559Z,28.83
2023-01-25T12:44:55.821Z,30.47
2023-01-25T12:47:32.966Z,29.43
2023-01-25T12:50:10.821Z,27.53
2023-01-25T12:52:43.775Z,29.93
2023-01-25T12:55:15.991Z,29.03
2023-01-25T12:57:52.388Z,32.40
2023-01-25T13:00:25.316Z,28.83
2023-01-25T13:03:08.843Z,28.57
2023-01-25T13:05:46.592Z,29.17
2023-01-25T13:08:31.864Z,31.50
2023-01-25T13:11:09.745Z,31.23
2023-01-25T13:13:37.674Z,28.73
2023-01-25T13:16:32.601Z,27.03
2023-01-25T13:19:01.288Z,27.70
2023-01-25T13:21:46.399Z,31.63
2023-01-25T13:24:18.344Z,35.70
2023-01-25T13:26:58.112Z,29.87
2023-01-25T13:29:55.965Z,32.73
2023-01-25T13:32:55.476Z,33.80
2023-01-25T13:35:32.012Z,34.30
2023-01-25T13:38:07.525Z,30.20
2023-01-25T13:40:37.354Z,30.97
2023-01-25T13:43:07.428Z,33.07
2023-01-25T13:45:39.326Z,34.17
2023-01-25T13:48:14.898Z,38.47
2023-01-25T13:50:48.261Z,31.67
2023-01-25T13:53:23.031Z,32.43
2023-01-25T13:55:52.485Z,32.77
2023-01-25T13:58:23.462Z,35.30
2023-01-25T14:00:54.714Z,28.93
2023-01-25T14:03:27.105Z,37.50
2023-01-25T14:05:56.933Z,35.00
2023-01-25T14:08:27.506Z,35.17
2023-01-25T14:10:58.014Z,31.37
2023-01-25T14:13:26.132Z,37.40
2023-01-25T14:15:56.577Z,29.53
2023-01-25T14:18:29.647Z,34.30
2023-01-25T14:21:13.144Z,29.33
2023-01-25T14:23:42.377Z,32.90
2023-01-25T14:26:19.324Z,31.17
2023-01-25T14:28:59.223Z,33.57
2023-01-25T14:31:33.837Z,34.70
2023-01-25T14:34:04.125Z,32.40
2023-01-25T14:36:34.475Z,30.67
2023-01-25T14:39:14.533Z,35.80
2023-01-25T14:41:59.292Z,32.17
2023-01-25T14:44:30.146Z,33.47
2023-01-25T14:47:20.987Z,35.90
2023-01-25T14:49:48.913Z,32.70
2023-01-25T14:52:20.324Z,31.57
2023-01-25T14:54:54.179Z,33.30
2023-01-25T14:57:35.435Z,43.63
2023-01-25T15:00:05.226Z,36.57
2023-01-25T15:02:40.028Z,32.07
2023-01-25T15:05:19.479Z,36.37
2023-01-25T15:07:49.609Z,34.90
2023-01-25T15:10:23.112Z,33.63
2023-01-25T15:13:18.130Z,32.17
2023-01-25T15:15:53.903Z,34.80
2023-01-25T15:18:47.230Z,34.97
2023-01-25T15:21:16.533Z,32.60
2023-01-25T15:23:46.187Z,37.53
2023-01-25T15:26:22.805Z,33.37
2023-01-25T15:28:51.584Z,35.40
2023-01-25T15:31:22.015Z,31.60
2023-01-25T15:33:50.148Z,34.50
2023-01-25T15:36:18.595Z,35.03
2023-01-25T15:38:46.901Z,33.17
2023-01-25T15:41:15.369Z,37.20
2023-01-25T15:43:44.594Z,34.93
2023-01-25T15:46:17.732Z,36.60
2023-01-25T15:48:47.173Z,29.77
2023-01-25T15:51:15.031Z,34.63
2023-01-25T15:53:43.104Z,34.60
2023-01-25T15:56:15.298Z,37.97
2023-01-25T15:58:47.223Z,36.47
2023-01-25T16:01:15.472Z,32.17
2023-01-25T16:03:43.381Z,38.03
2023-01-25T16:06:24.928Z,35.47
2023-01-25T16:08:52.999Z,36.20
2023-01-25T16:11:20.965Z,36.70
2023-01-25T16:13:50.118Z,37.00
2023-01-25T16:16:20.007Z,41.70
2023-01-25T16:18:48.898Z,39.07
2023-01-25T16:21:17.182Z,39.43
2023-01-25T16:23:44.997Z,41.53
2023-01-25T16:26:19.952Z,43.03
2023-01-25T16:28:48.351Z,36.23
2023-01-25T16:31:31.397Z,36.87
2023-01-25T16:34:00.575Z,40.90
2023-01-25T16:36:28.882Z,39.07
2023-01-25T16:38:56.850Z,39.87
2023-01-25T16:41:24.681Z,48.20
2023-01-25T16:43:53.563Z,38.37
2023-01-25T16:46:24.342Z,37.17
2023-01-25T16:48:53.248Z,44.23
2023-01-25T16:51:23.293Z,80.23
2023-01-25T16:53:52.946Z,72.43
2023-01-25T16:56:22.964Z,51.60
2023-01-25T16:58:51.864Z,59.27
2023-01-25T17:01:23.103Z,42.10
2023-01-25T17:03:51.413Z,43.83
2023-01-25T17:06:20.996Z,41.73
2023-01-25T17:08:49.669Z,38.30
2023-01-25T17:11:18.730Z,45.57
2023-01-25T17:13:49.262Z,43.57
2023-01-25T17:16:17.454Z,46.07
2023-01-25T17:18:46.712Z,44.00
2023-01-25T17:21:16.820Z,43.10
2023-01-25T17:23:44.756Z,39.10
2023-01-25T17:26:14.376Z,45.30
2023-01-25T17:28:42.882Z,42.50
2023-01-25T17:31:15.024Z,39.70
2023-01-25T17:33:42.995Z,45.80
2023-01-25T17:36:15.012Z,44.97
2023-01-25T17:38:43.731Z,37.03
2023-01-25T17:41:13.383Z,45.93
2023-01-25T17:43:41.293Z,42.00
2023-01-25T17:46:13.437Z,41.37
2023-01-25T17:48:41.774Z,39.53
2023-01-25T17:51:09.813Z,38.20
2023-01-25T17:53:38.990Z,38.30
2023-01-25T17:56:08.516Z,35.97
2023-01-25T17:58:37.897Z,40.73
2023-01-25T18:01:14.192Z,39.60
2023-01-25T18:03:43.143Z,43.63
2023-01-25T18:06:12.079Z,38.30
2023-01-25T18:08:42.437Z,41.67
2023-01-25T18:11:11.164Z,58.27
2023-01-25T18:13:42.551Z,42.30
2023-01-25T18:16:11.039Z,43.50
2023-01-25T18:18:40.451Z,39.03
2023-01-25T18:21:10.707Z,42.70
2023-01-25T18:23:40.704Z,43.57
2023-01-25T18:26:18.698Z,37.30
2023-01-25T18:28:46.942Z,41.73
2023-01-25T18:31:17.417Z,44.93
2023-01-25T18:33:45.892Z,42.93
2023-01-25T18:36:15.925Z,43.50
2023-01-25T18:38:43.806Z,53.30
2023-01-25T18:41:13.615Z,47.27
2023-01-25T18:43:41.552Z,43.83
2023-01-25T18:46:11.262Z,42.00
2023-01-25T18:48:39.905Z,39.97
2023-01-25T18:51:11.185Z,52.10
2023-01-25T18:53:41.143Z,39.00
2023-01-25T18:56:14.120Z,39.13
2023-01-25T18:58:42.835Z,35.93
2023-01-25T19:01:13.942Z,36.23
2023-01-25T19:03:42.161Z,40.90
2023-01-25T19:06:10.741Z,42.57
2023-01-25T19:08:41.497Z,35.60
2023-01-25T19:11:11.399Z,37.83
2023-01-25T19:13:42.253Z,36.87
2023-01-25T19:16:13.563Z,39.43
2023-01-25T19:18:46.364Z,43.67
2023-01-25T19:21:16.171Z,38.67
2023-01-25T19:23:44.303Z,38.40
2023-01-25T19:26:13.957Z,41.53
2023-01-25T19:28:43.540Z,40.73
2023-01-25T19:31:13.986Z,39.73
2023-01-25T19:33:42.453Z,38.83
2023-01-25T19:36:15.378Z,41.00
2023-01-25T19:38:43.661Z,42.37
2023-01-25T19:41:13.272Z,39.63
2023-01-25T19:43:43.562Z,45.70
2023-01-25T19:46:13.210Z,86.83
2023-01-25T19:48:41.840Z,42.37
2023-01-25T19:51:11.235Z,39.93
2023-01-25T19:53:39.337Z,38.30
2023-01-25T19:56:09.278Z,37.93
2023-01-25T19:58:37.258Z,41.80
2023-01-25T20:01:11.073Z,40.13
2023-01-25T20:03:39.638Z,37.77
2023-01-25T20:06:08.662Z,37.53
2023-01-25T20:08:38.822Z,34.90
2023-01-25T20:11:09.024Z,32.50
2023-01-25T20:13:37.360Z,35.27
2023-01-25T20:16:06.524Z,31.80
2023-01-25T20:18:36.310Z,34.70
2023-01-25T20:21:06.165Z,35.97
2023-01-25T20:23:35.716Z,36.70
2023-01-25T20:26:05.895Z,36.83
2023-01-25T20:28:35.713Z,38.53
2023-01-25T20:31:04.693Z,33.50
2023-01-25T20:33:32.791Z,35.97
2023-01-25T20:36:03.663Z,39.47
2023-01-25T20:38:31.927Z,37.27
2023-01-25T20:41:00.723Z,36.83
2023-01-25T20:43:29.555Z,34.33
2023-01-25T20:45:57.596Z,30.17
2023-01-25T20:48:25.953Z,32.77
2023-01-25T20:50:53.804Z,36.37
2023-01-25T20:53:23.052Z,44.50
2023-01-25T20:55:55.913Z,35.70
2023-01-25T20:58:23.791Z,37.27
2023-01-25T21:00:51.866Z,37.07
2023-01-25T21:03:19.780Z,35.77
2023-01-25T21:05:52.458Z,35.97
2023-01-25T21:08:20.881Z,37.67
2023-01-25T21:10:51.457Z,40.80
2023-01-25T21:13:20.079Z,32.13
2023-01-25T21:15:59.309Z,36.40
2023-01-25T21:18:29.509Z,37.03
2023-01-25T21:21:06.146Z,36.00
2023-01-25T21:23:35.260Z,35.13
2023-01-25T21:26:05.639Z,35.37
2023-01-25T21:28:34.292Z,41.17
2023-01-25T21:31:08.462Z,39.00
2023-01-25T21:33:36.721Z,35.37
2023-01-25T21:36:08.485Z,36.40
2023-01-25T21:38:36.398Z,44.83
2023-01-25T21:41:07.684Z,37.80
2023-01-25T21:43:56.165Z,42.40
2023-01-25T21:46:27.701Z,43.67
2023-01-25T21:49:14.070Z,44.00
2023-01-25T21:51:49.388Z,37.47
2023-01-25T21:54:18.261Z,42.70
2023-01-25T21:56:49.418Z,43.70
2023-01-25T21:59:17.939Z,43.23
2023-01-25T22:01:46.665Z,46.83
2023-01-25T22:04:16.156Z,36.90
2023-01-25T22:06:44.802Z,39.43
2023-01-25T22:09:14.375Z,41.63
2023-01-25T22:11:45.766Z,40.53
2023-01-25T22:14:15.680Z,41.43
2023-01-25T22:16:43.569Z,41.23
2023-01-25T22:19:11.441Z,41.03
2023-01-25T22:21:39.229Z,38.00
2023-01-25T22:24:08.571Z,42.87
2023-01-25T22:26:47.320Z,43.50
2023-01-25T22:29:33.265Z,48.43
2023-01-25T22:32:02.192Z,51.97
2023-01-25T22:34:30.253Z,43.57
2023-01-25T22:36:58.136Z,42.53
2023-01-25T22:39:25.959Z,43.23
2023-01-25T22:41:53.883Z,42.87
2023-01-25T22:44:21.715Z,39.10
2023-01-25T22:46:52.333Z,43.60
2023-01-25T22:49:20.419Z,42.23
2023-01-25T22:51:48.417Z,48.00
2023-01-25T22:54:16.411Z,45.57
2023-01-25T22:56:44.257Z,43.57
2023-01-25T22:59:14.810Z,43.03
2023-01-25T23:01:42.651Z,42.43
2023-01-25T23:04:11.983Z,41.37
2023-01-25T23:06:39.835Z,48.37
2023-01-25T23:09:07.655Z,41.10
2023-01-25T23:11:37.943Z,45.73
2023-01-25T23:14:24.436Z,43.27
2023-01-25T23:16:52.362Z,46.60
2023-01-25T23:19:20.591Z,47.07
2023-01-25T23:21:48.446Z,45.00
2023-01-25T23:24:16.329Z,42.20
2023-01-25T23:26:46.523Z,44.53
2023-01-25T23:29:15.012Z,44.53
2023-01-25T23:31:43.255Z,40.90
2023-01-25T23:34:12.637Z,42.63
2023-01-25T23:36:42.384Z,40.40
2023-01-25T23:39:13.153Z,35.03
2023-01-25T23:41:41.028Z,36.93
2023-01-25T23:44:09.129Z,40.37
2023-01-25T23:46:37.115Z,40.63
2023-01-25T23:49:05.049Z,43.00
2023-01-25T23:51:32.892Z,35.77
2023-01-25T23:54:02.055Z,38.37
2023-01-25T23:56:29.973Z,37.73
2023-01-25T23:58:58.535Z,52.73
